Rhea I Bouchard — WRQ4509 — position and weather

sailwx.info

Track history (hours):
 
Tides and Currents Weather Stations Pressure Air Temp Water Temp Dewpoint Dewpoint Depression Visibility Wind Speed Wind Dir Waves Ship Positions

Rhea I Bouchard

Owner: BOUCHARD TRANSPORTATION, MELVILLE, NY. More information available from US FCC via Universal Licensing System and Coast Guard Vessel Documentation Center.

Last reported at 2018-Feb-25 17:30 UTC. Time now 2018-Feb-25 17:36 UTC.
Position N 40°33' W 074°14'.

Length 162 m; draft 5.6 m.

MMSI: 367006540.

Date/timePositionNaut miles runAvg speedWind from/ knotsBaromVisibWave heightAir tempDewpointWater temp
2018-Feb-25 17:30N 40°33' W 074°14'2 4.0
2018-Feb-25 17:00N 40°35' W 074°13'1 1.1
2018-Feb-25 16:30N 40°36' W 074°12'2 3.6
2018-Feb-25 15:56N 40°34' W 074°13'0 1.0
2018-Feb-25 15:30N 40°33' W 074°14'2 3.1
2018-Feb-25 15:00N 40°32' W 074°15'0 0.0
2018-Feb-25 13:29N 40°32' W 074°15'1 2.5
2018-Feb-25 13:00N 40°34' W 074°14'0 0.0
2018-Feb-25 12:30N 40°34' W 074°14'0 0.0
2018-Feb-25 12:00N 40°34' W 074°14'0 0.0
2018-Feb-25 11:30N 40°34' W 074°14'0 0.0
2018-Feb-25 11:00N 40°34' W 074°14'0 0.0
2018-Feb-25 10:28N 40°34' W 074°14'0 0.0
2018-Feb-25 09:55N 40°34' W 074°14'0 0.0
2018-Feb-25 09:25N 40°34' W 074°14'0 0.1
2018-Feb-25 08:34N 40°33' W 074°14'0 2.1
2018-Feb-25 08:30N 40°33' W 074°14'2 2.9
2018-Feb-25 07:59N 40°34' W 074°13'4 9.1
2018-Feb-25 07:30N 40°38' W 074°12'4 8.9
2018-Feb-25 07:00N 40°39' W 074°06'0 0.1
2018-Feb-25 06:28N 40°39' W 074°06'0 0.0
2018-Feb-25 05:46N 40°39' W 074°06'0 0.0
2018-Feb-25 05:28N 40°39' W 074°06'0 0.0
2018-Feb-25 04:52N 40°39' W 074°06'0 0.0
2018-Feb-25 04:16N 40°39' W 074°06'0 0.0
2018-Feb-25 03:58N 40°39' W 074°06'0 0.0
2018-Feb-25 03:28N 40°39' W 074°06'0 0.0
2018-Feb-25 03:01N 40°39' W 074°06'0 0.0
2018-Feb-25 02:31N 40°39' W 074°06'0 0.0
2018-Feb-25 02:01N 40°39' W 074°06'3 6.9
2018-Feb-25 01:30N 40°39' W 074°10'4 7.5
2018-Feb-25 01:00N 40°35' W 074°12'5 0.1
2018-Feb-23 15:06N 40°30' W 074°11'110.9
2018-Feb-23 14:59N 40°30' W 074°10'511.0
2018-Feb-23 14:30N 40°29' W 074°03'7 9.1
2018-Feb-23 13:42N 40°27' W 073°54'2 9.7
2018-Feb-23 13:29N 40°28' W 073°51'17810.0
2018-Feb-22 19:41N 42°01' W 070°30'2 9.8
2018-Feb-22 19:28N 42°03' W 070°31'5 9.7
2018-Feb-22 19:00N 42°08' W 070°32'510.0
2018-Feb-22 18:30N 42°12' W 070°35'5 9.9
2018-Feb-22 18:00N 42°16' W 070°39'5 9.8
2018-Feb-22 17:30N 42°20' W 070°43'5 9.7
2018-Feb-22 17:00N 42°23' W 070°49'5 9.4
2018-Feb-22 16:30N 42°22' W 070°55'4 8.4
2018-Feb-22 16:01N 42°20' W 070°60'4 7.2
2018-Feb-22 15:30N 42°23' W 071°02'1 0.1
2018-Feb-22 04:22N 42°24' W 071°01'0 0.5
2018-Feb-22 04:00N 42°24' W 071°01'1 2.6
2018-Feb-22 03:30N 42°23' W 071°02'2 3.9
2018-Feb-22 03:00N 42°21' W 071°02'4 8.4
2018-Feb-22 02:30N 42°21' W 070°56'5 9.3
2018-Feb-22 02:00N 42°23' W 070°51'4 7.8
2018-Feb-22 01:30N 42°26' W 070°47'3 6.0
2018-Feb-22 01:00N 42°28' W 070°44'3 5.9
2018-Feb-22 00:30N 42°30' W 070°41'3 5.7
2018-Feb-22 00:00N 42°31' W 070°38'3 5.6
2018-Feb-21 23:30N 42°33' W 070°35'3 5.6
2018-Feb-21 23:00N 42°35' W 070°32'3 6.3
2018-Feb-21 22:30N 42°37' W 070°29'4 8.7
2018-Feb-21 22:00N 42°41' W 070°26'5 9.6
2018-Feb-21 21:30N 42°46' W 070°24'5 9.6
2018-Feb-21 21:00N 42°50' W 070°23'15 0.8
2018-Feb-21 02:01N 43°05' W 070°22'110.0
2018-Feb-21 01:53N 43°04' W 070°22'410.1
2018-Feb-21 01:30N 43°00' W 070°24'510.1
2018-Feb-21 01:01N 42°55' W 070°25'510.1
2018-Feb-21 00:30N 42°50' W 070°27'5 9.8
2018-Feb-21 00:01N 42°46' W 070°29'510.0
2018-Feb-20 23:30N 42°41' W 070°30'5 9.8
2018-Feb-20 23:00N 42°36' W 070°30'510.1
2018-Feb-20 22:31N 42°31' W 070°31'510.3
2018-Feb-20 22:00N 42°26' W 070°31'510.3
2018-Feb-20 21:31N 42°21' W 070°31'510.3
2018-Feb-20 21:00N 42°15' W 070°31'172 5.9
2018-Feb-19 15:51N 40°32' W 073°34'5 9.9
2018-Feb-19 15:22N 40°31' W 073°40'4 9.8
2018-Feb-19 15:01N 40°30' W 073°44'510.0
2018-Feb-19 14:30N 40°30' W 073°51'4 8.9
2018-Feb-19 14:00N 40°30' W 073°57'4 8.1
2018-Feb-19 13:29N 40°33' W 074°01'4 9.0
2018-Feb-19 13:00N 40°37' W 074°03'4 7.4
2018-Feb-19 12:30N 40°39' W 074°07'4 7.3
2018-Feb-19 12:01N 40°38' W 074°12'1 2.0
2018-Feb-19 11:30N 40°38' W 074°12'0 0.0
2018-Feb-19 11:00N 40°38' W 074°12'0 0.1
2018-Feb-19 10:28N 40°38' W 074°12'3 6.5
2018-Feb-19 10:00N 40°39' W 074°09'1 1.9
2018-Feb-19 09:30N 40°39' W 074°07'0 0.0
2018-Feb-19 09:00N 40°38' W 074°07'0 0.0
2018-Feb-19 08:30N 40°39' W 074°07'0 0.0
2018-Feb-19 08:00N 40°38' W 074°07'0 0.0
2018-Feb-19 07:30N 40°38' W 074°07'0 0.0
2018-Feb-19 06:59N 40°38' W 074°07'0 0.0
2018-Feb-19 06:29N 40°39' W 074°07'0 0.0
2018-Feb-19 06:00N 40°39' W 074°07'0 0.0
2018-Feb-19 05:30N 40°38' W 074°07'0 0.0
2018-Feb-19 05:00N 40°38' W 074°07'0 0.0
2018-Feb-19 04:30N 40°39' W 074°07'0 0.0
2018-Feb-19 04:00N 40°38' W 074°07'0 0.0
2018-Feb-19 03:30N 40°39' W 074°07'0 0.0
2018-Feb-19 02:59N 40°39' W 074°07'0 0.0
2018-Feb-19 02:30N 40°38' W 074°07'0 0.0
2018-Feb-19 02:00N 40°39' W 074°07'0 0.0
2018-Feb-19 01:30N 40°38' W 074°07'0 0.0
2018-Feb-19 01:00N 40°39' W 074°07'0 0.0
2018-Feb-19 00:30N 40°38' W 074°07'0 0.0
2018-Feb-19 00:00N 40°38' W 074°07'0 0.0
2018-Feb-18 23:30N 40°38' W 074°07'0 0.0
2018-Feb-18 23:00N 40°39' W 074°07'0 0.0
2018-Feb-18 22:30N 40°39' W 074°07'0 0.0
2018-Feb-18 21:59N 40°38' W 074°07'0 0.0
2018-Feb-18 21:28N 40°38' W 074°07'0 0.0
2018-Feb-18 21:00N 40°39' W 074°07'0 0.0
2018-Feb-18 20:30N 40°38' W 074°07'0 0.0
2018-Feb-18 20:00N 40°39' W 074°07'0 0.0
2018-Feb-18 19:30N 40°39' W 074°07'0 0.0
2018-Feb-18 19:00N 40°38' W 074°07'0 0.0
2018-Feb-18 18:30N 40°38' W 074°07'0 0.0
2018-Feb-18 18:00N 40°39' W 074°07'0 0.0
2018-Feb-18 17:30N 40°39' W 074°07'0 0.0
2018-Feb-18 17:00N 40°39' W 074°07'0 0.0
2018-Feb-18 16:29N 40°38' W 074°07'0 0.0
2018-Feb-18 16:00N 40°39' W 074°07'0 0.0
2018-Feb-18 15:30N 40°39' W 074°07'0 0.0
2018-Feb-18 14:59N 40°38' W 074°07'0 0.0
2018-Feb-18 14:30N 40°38' W 074°07'0 0.0
2018-Feb-18 14:00N 40°38' W 074°07'0 0.0
2018-Feb-18 13:30N 40°39' W 074°07'0 0.0
2018-Feb-18 12:59N 40°38' W 074°07'0 0.0
2018-Feb-18 12:30N 40°39' W 074°07'0 0.0
2018-Feb-18 12:00N 40°39' W 074°07'3 6.8
2018-Feb-18 11:30N 40°38' W 074°12'1 1.3
2018-Feb-18 11:01N 40°38' W 074°12'2 3.2
2018-Feb-18 10:30N 40°39' W 074°11'4 7.4
2018-Feb-18 09:59N 40°39' W 074°06'3 5.6
2018-Feb-18 09:30N 40°37' W 074°03'3 6.2
2018-Feb-18 09:00N 40°34' W 074°02'3 6.8
2018-Feb-18 08:30N 40°31' W 073°60'6 7.1
2018-Feb-18 07:41N 40°29' W 073°53'1 6.1
2018-Feb-18 07:29N 40°29' W 073°51'180 8.8
2018-Feb-17 10:57N 42°07' W 070°30'4 9.5
2018-Feb-17 10:30N 42°11' W 070°32'5 9.8
2018-Feb-17 10:00N 42°14' W 070°37'5 9.8
2018-Feb-17 09:31N 42°18' W 070°41'5 9.9
2018-Feb-17 09:00N 42°21' W 070°46'510.0
2018-Feb-17 08:30N 42°23' W 070°53'510.5
2018-Feb-17 08:00N 42°20' W 070°59'4 8.2
2018-Feb-17 07:30N 42°23' W 071°03'1 2.8
2018-Feb-17 07:01N 42°24' W 071°01'0 0.0
2018-Feb-16 21:21N 42°24' W 071°01'0 0.0
2018-Feb-16 21:00N 42°24' W 071°01'1 1.4
2018-Feb-16 20:30N 42°23' W 071°02'2 3.3
2018-Feb-16 20:00N 42°21' W 071°02'0 0.6
2018-Feb-16 19:30N 42°21' W 071°02'0 0.0
2018-Feb-16 19:00N 42°21' W 071°02'0 0.0
2018-Feb-16 18:30N 42°21' W 071°02'0 0.0
2018-Feb-16 18:00N 42°21' W 071°02'0 0.0
2018-Feb-16 17:30N 42°21' W 071°02'0 0.0
2018-Feb-16 16:58N 42°21' W 071°02'0 0.0
2018-Feb-16 16:30N 42°21' W 071°02'0 0.1
2018-Feb-16 16:00N 42°21' W 071°02'0 0.1
2018-Feb-16 15:30N 42°21' W 071°02'0 0.0
2018-Feb-16 15:00N 42°21' W 071°02'0 0.1
2018-Feb-16 14:30N 42°21' W 071°02'0 0.0
2018-Feb-16 14:00N 42°21' W 071°02'0 0.1
2018-Feb-16 13:30N 42°21' W 071°02'0 0.0
2018-Feb-16 13:00N 42°21' W 071°02'0 0.0
2018-Feb-16 12:30N 42°21' W 071°02'0 0.1
2018-Feb-16 11:55N 42°21' W 071°02'0 0.1
2018-Feb-16 11:30N 42°21' W 071°02'0 0.1
2018-Feb-16 11:00N 42°21' W 071°02'0 0.0
2018-Feb-16 10:27N 42°21' W 071°02'0 0.0
2018-Feb-16 10:00N 42°21' W 071°02'0 0.0
2018-Feb-16 09:30N 42°21' W 071°02'0 0.0
2018-Feb-16 08:54N 42°21' W 071°02'0 0.0
2018-Feb-16 08:30N 42°21' W 071°02'0 0.0
2018-Feb-16 08:00N 42°21' W 071°02'0 0.0
2018-Feb-16 07:30N 42°21' W 071°02'0 0.0
2018-Feb-16 07:00N 42°21' W 071°02'0 0.0
2018-Feb-16 06:30N 42°21' W 071°02'0 0.0
2018-Feb-16 05:59N 42°21' W 071°02'0 0.1
2018-Feb-16 05:30N 42°21' W 071°02'0 0.1
2018-Feb-16 04:55N 42°21' W 071°02'0 0.0
2018-Feb-16 04:30N 42°21' W 071°02'0 0.0
2018-Feb-16 04:00N 42°21' W 071°02'0 0.1
2018-Feb-16 03:30N 42°21' W 071°02'0 0.1
2018-Feb-16 02:59N 42°21' W 071°02'0 0.1
2018-Feb-16 02:30N 42°21' W 071°02'0 0.0
2018-Feb-16 02:00N 42°21' W 071°02'0 0.0
2018-Feb-16 01:29N 42°21' W 071°02'0 0.1
2018-Feb-16 01:00N 42°21' W 071°02'0 0.0
2018-Feb-16 00:30N 42°21' W 071°02'0 0.0
2018-Feb-16 00:00N 42°21' W 071°02'0 0.0
2018-Feb-15 23:30N 42°21' W 071°02'0 0.0
2018-Feb-15 23:00N 42°21' W 071°02'0 0.1
2018-Feb-15 22:30N 42°21' W 071°02'0 0.0
2018-Feb-15 22:00N 42°21' W 071°02'0 0.0
2018-Feb-15 21:30N 42°21' W 071°02'0 0.0
2018-Feb-15 21:00N 42°21' W 071°02'0 0.0
2018-Feb-15 20:30N 42°21' W 071°02'0 0.0
2018-Feb-15 19:57N 42°21' W 071°02'0 0.1
2018-Feb-15 19:30N 42°21' W 071°02'0 0.0
2018-Feb-15 18:59N 42°21' W 071°02'0 0.0
2018-Feb-15 18:28N 42°21' W 071°02'0 0.0
2018-Feb-15 18:00N 42°21' W 071°02'0 0.0
2018-Feb-15 17:30N 42°21' W 071°02'  
Track history (hours):
 
Tides and Currents Weather Stations Pressure Air Temp Water Temp Dewpoint Dewpoint Depression Visibility Wind Speed Wind Dir Waves Ship Positions

Rhea I Bouchard

Owner: BOUCHARD TRANSPORTATION, MELVILLE, NY. More information available from US FCC via Universal Licensing System and Coast Guard Vessel Documentation Center.

Last reported at 2018-Feb-25 17:30 UTC. Time now 2018-Feb-25 17:36 UTC.
Position N 40°33' W 074°14'.

Length 162 m; draft 5.6 m.

MMSI: 367006540.

Date/timePositionNaut miles runAvg speedWind from/ knotsBaromVisibWave heightAir tempDewpointWater temp
2018-Feb-25 17:30N 40°33' W 074°14'2 4.0
2018-Feb-25 17:00N 40°35' W 074°13'1 1.1
2018-Feb-25 16:30N 40°36' W 074°12'2 3.6
2018-Feb-25 15:56N 40°34' W 074°13'0 1.0
2018-Feb-25 15:30N 40°33' W 074°14'2 3.1
2018-Feb-25 15:00N 40°32' W 074°15'0 0.0
2018-Feb-25 13:29N 40°32' W 074°15'1 2.5
2018-Feb-25 13:00N 40°34' W 074°14'0 0.0
2018-Feb-25 12:30N 40°34' W 074°14'0 0.0
2018-Feb-25 12:00N 40°34' W 074°14'0 0.0
2018-Feb-25 11:30N 40°34' W 074°14'0 0.0
2018-Feb-25 11:00N 40°34' W 074°14'0 0.0
2018-Feb-25 10:28N 40°34' W 074°14'0 0.0
2018-Feb-25 09:55N 40°34' W 074°14'0 0.0
2018-Feb-25 09:25N 40°34' W 074°14'0 0.1
2018-Feb-25 08:34N 40°33' W 074°14'0 2.1
2018-Feb-25 08:30N 40°33' W 074°14'2 2.9
2018-Feb-25 07:59N 40°34' W 074°13'4 9.1
2018-Feb-25 07:30N 40°38' W 074°12'4 8.9
2018-Feb-25 07:00N 40°39' W 074°06'0 0.1
2018-Feb-25 06:28N 40°39' W 074°06'0 0.0
2018-Feb-25 05:46N 40°39' W 074°06'0 0.0
2018-Feb-25 05:28N 40°39' W 074°06'0 0.0
2018-Feb-25 04:52N 40°39' W 074°06'0 0.0
2018-Feb-25 04:16N 40°39' W 074°06'0 0.0
2018-Feb-25 03:58N 40°39' W 074°06'0 0.0
2018-Feb-25 03:28N 40°39' W 074°06'0 0.0
2018-Feb-25 03:01N 40°39' W 074°06'0 0.0
2018-Feb-25 02:31N 40°39' W 074°06'0 0.0
2018-Feb-25 02:01N 40°39' W 074°06'3 6.9
2018-Feb-25 01:30N 40°39' W 074°10'4 7.5
2018-Feb-25 01:00N 40°35' W 074°12'5 0.1
2018-Feb-23 15:06N 40°30' W 074°11'110.9
2018-Feb-23 14:59N 40°30' W 074°10'511.0
2018-Feb-23 14:30N 40°29' W 074°03'7 9.1
2018-Feb-23 13:42N 40°27' W 073°54'2 9.7
2018-Feb-23 13:29N 40°28' W 073°51'17810.0
2018-Feb-22 19:41N 42°01' W 070°30'2 9.8
2018-Feb-22 19:28N 42°03' W 070°31'5 9.7
2018-Feb-22 19:00N 42°08' W 070°32'510.0
2018-Feb-22 18:30N 42°12' W 070°35'5 9.9
2018-Feb-22 18:00N 42°16' W 070°39'5 9.8
2018-Feb-22 17:30N 42°20' W 070°43'5 9.7
2018-Feb-22 17:00N 42°23' W 070°49'5 9.4
2018-Feb-22 16:30N 42°22' W 070°55'4 8.4
2018-Feb-22 16:01N 42°20' W 070°60'4 7.2
2018-Feb-22 15:30N 42°23' W 071°02'1 0.1
2018-Feb-22 04:22N 42°24' W 071°01'0 0.5
2018-Feb-22 04:00N 42°24' W 071°01'1 2.6
2018-Feb-22 03:30N 42°23' W 071°02'2 3.9
2018-Feb-22 03:00N 42°21' W 071°02'4 8.4
2018-Feb-22 02:30N 42°21' W 070°56'5 9.3
2018-Feb-22 02:00N 42°23' W 070°51'4 7.8
2018-Feb-22 01:30N 42°26' W 070°47'3 6.0
2018-Feb-22 01:00N 42°28' W 070°44'3 5.9
2018-Feb-22 00:30N 42°30' W 070°41'3 5.7
2018-Feb-22 00:00N 42°31' W 070°38'3 5.6
2018-Feb-21 23:30N 42°33' W 070°35'3 5.6
2018-Feb-21 23:00N 42°35' W 070°32'3 6.3
2018-Feb-21 22:30N 42°37' W 070°29'4 8.7
2018-Feb-21 22:00N 42°41' W 070°26'5 9.6
2018-Feb-21 21:30N 42°46' W 070°24'5 9.6
2018-Feb-21 21:00N 42°50' W 070°23'15 0.8
2018-Feb-21 02:01N 43°05' W 070°22'110.0
2018-Feb-21 01:53N 43°04' W 070°22'410.1
2018-Feb-21 01:30N 43°00' W 070°24'510.1
2018-Feb-21 01:01N 42°55' W 070°25'510.1
2018-Feb-21 00:30N 42°50' W 070°27'5 9.8
2018-Feb-21 00:01N 42°46' W 070°29'510.0
2018-Feb-20 23:30N 42°41' W 070°30'5 9.8
2018-Feb-20 23:00N 42°36' W 070°30'510.1
2018-Feb-20 22:31N 42°31' W 070°31'510.3
2018-Feb-20 22:00N 42°26' W 070°31'510.3
2018-Feb-20 21:31N 42°21' W 070°31'510.3
2018-Feb-20 21:00N 42°15' W 070°31'172 5.9
2018-Feb-19 15:51N 40°32' W 073°34'5 9.9
2018-Feb-19 15:22N 40°31' W 073°40'4 9.8
2018-Feb-19 15:01N 40°30' W 073°44'510.0
2018-Feb-19 14:30N 40°30' W 073°51'4 8.9
2018-Feb-19 14:00N 40°30' W 073°57'4 8.1
2018-Feb-19 13:29N 40°33' W 074°01'4 9.0
2018-Feb-19 13:00N 40°37' W 074°03'4 7.4
2018-Feb-19 12:30N 40°39' W 074°07'4 7.3
2018-Feb-19 12:01N 40°38' W 074°12'1 2.0
2018-Feb-19 11:30N 40°38' W 074°12'0 0.0
2018-Feb-19 11:00N 40°38' W 074°12'0 0.1
2018-Feb-19 10:28N 40°38' W 074°12'3 6.5
2018-Feb-19 10:00N 40°39' W 074°09'1 1.9
2018-Feb-19 09:30N 40°39' W 074°07'0 0.0
2018-Feb-19 09:00N 40°38' W 074°07'0 0.0
2018-Feb-19 08:30N 40°39' W 074°07'0 0.0
2018-Feb-19 08:00N 40°38' W 074°07'0 0.0
2018-Feb-19 07:30N 40°38' W 074°07'0 0.0
2018-Feb-19 06:59N 40°38' W 074°07'0 0.0
2018-Feb-19 06:29N 40°39' W 074°07'0 0.0
2018-Feb-19 06:00N 40°39' W 074°07'0 0.0
2018-Feb-19 05:30N 40°38' W 074°07'0 0.0
2018-Feb-19 05:00N 40°38' W 074°07'0 0.0
2018-Feb-19 04:30N 40°39' W 074°07'0 0.0
2018-Feb-19 04:00N 40°38' W 074°07'0 0.0
2018-Feb-19 03:30N 40°39' W 074°07'0 0.0
2018-Feb-19 02:59N 40°39' W 074°07'0 0.0
2018-Feb-19 02:30N 40°38' W 074°07'0 0.0
2018-Feb-19 02:00N 40°39' W 074°07'0 0.0
2018-Feb-19 01:30N 40°38' W 074°07'0 0.0
2018-Feb-19 01:00N 40°39' W 074°07'0 0.0
2018-Feb-19 00:30N 40°38' W 074°07'0 0.0
2018-Feb-19 00:00N 40°38' W 074°07'0 0.0
2018-Feb-18 23:30N 40°38' W 074°07'0 0.0
2018-Feb-18 23:00N 40°39' W 074°07'0 0.0
2018-Feb-18 22:30N 40°39' W 074°07'0 0.0
2018-Feb-18 21:59N 40°38' W 074°07'0 0.0
2018-Feb-18 21:28N 40°38' W 074°07'0 0.0
2018-Feb-18 21:00N 40°39' W 074°07'0 0.0
2018-Feb-18 20:30N 40°38' W 074°07'0 0.0
2018-Feb-18 20:00N 40°39' W 074°07'0 0.0
2018-Feb-18 19:30N 40°39' W 074°07'0 0.0
2018-Feb-18 19:00N 40°38' W 074°07'0 0.0
2018-Feb-18 18:30N 40°38' W 074°07'0 0.0
2018-Feb-18 18:00N 40°39' W 074°07'0 0.0
2018-Feb-18 17:30N 40°39' W 074°07'0 0.0
2018-Feb-18 17:00N 40°39' W 074°07'0 0.0
2018-Feb-18 16:29N 40°38' W 074°07'0 0.0
2018-Feb-18 16:00N 40°39' W 074°07'0 0.0
2018-Feb-18 15:30N 40°39' W 074°07'0 0.0
2018-Feb-18 14:59N 40°38' W 074°07'0 0.0
2018-Feb-18 14:30N 40°38' W 074°07'0 0.0
2018-Feb-18 14:00N 40°38' W 074°07'0 0.0
2018-Feb-18 13:30N 40°39' W 074°07'0 0.0
2018-Feb-18 12:59N 40°38' W 074°07'0 0.0
2018-Feb-18 12:30N 40°39' W 074°07'0 0.0
2018-Feb-18 12:00N 40°39' W 074°07'3 6.8
2018-Feb-18 11:30N 40°38' W 074°12'1 1.3
2018-Feb-18 11:01N 40°38' W 074°12'2 3.2
2018-Feb-18 10:30N 40°39' W 074°11'4 7.4
2018-Feb-18 09:59N 40°39' W 074°06'3 5.6
2018-Feb-18 09:30N 40°37' W 074°03'3 6.2
2018-Feb-18 09:00N 40°34' W 074°02'3 6.8
2018-Feb-18 08:30N 40°31' W 073°60'6 7.1
2018-Feb-18 07:41N 40°29' W 073°53'1 6.1
2018-Feb-18 07:29N 40°29' W 073°51'180 8.8
2018-Feb-17 10:57N 42°07' W 070°30'4 9.5
2018-Feb-17 10:30N 42°11' W 070°32'5 9.8
2018-Feb-17 10:00N 42°14' W 070°37'5 9.8
2018-Feb-17 09:31N 42°18' W 070°41'5 9.9
2018-Feb-17 09:00N 42°21' W 070°46'510.0
2018-Feb-17 08:30N 42°23' W 070°53'510.5
2018-Feb-17 08:00N 42°20' W 070°59'4 8.2
2018-Feb-17 07:30N 42°23' W 071°03'1 2.8
2018-Feb-17 07:01N 42°24' W 071°01'0 0.0
2018-Feb-16 21:21N 42°24' W 071°01'0 0.0
2018-Feb-16 21:00N 42°24' W 071°01'1 1.4
2018-Feb-16 20:30N 42°23' W 071°02'2 3.3
2018-Feb-16 20:00N 42°21' W 071°02'0 0.6
2018-Feb-16 19:30N 42°21' W 071°02'0 0.0
2018-Feb-16 19:00N 42°21' W 071°02'0 0.0
2018-Feb-16 18:30N 42°21' W 071°02'0 0.0
2018-Feb-16 18:00N 42°21' W 071°02'0 0.0
2018-Feb-16 17:30N 42°21' W 071°02'0 0.0
2018-Feb-16 16:58N 42°21' W 071°02'0 0.0
2018-Feb-16 16:30N 42°21' W 071°02'0 0.1
2018-Feb-16 16:00N 42°21' W 071°02'0 0.1
2018-Feb-16 15:30N 42°21' W 071°02'0 0.0
2018-Feb-16 15:00N 42°21' W 071°02'0 0.1
2018-Feb-16 14:30N 42°21' W 071°02'0 0.0
2018-Feb-16 14:00N 42°21' W 071°02'0 0.1
2018-Feb-16 13:30N 42°21' W 071°02'0 0.0
2018-Feb-16 13:00N 42°21' W 071°02'0 0.0
2018-Feb-16 12:30N 42°21' W 071°02'0 0.1
2018-Feb-16 11:55N 42°21' W 071°02'0 0.1
2018-Feb-16 11:30N 42°21' W 071°02'0 0.1
2018-Feb-16 11:00N 42°21' W 071°02'0 0.0
2018-Feb-16 10:27N 42°21' W 071°02'0 0.0
2018-Feb-16 10:00N 42°21' W 071°02'0 0.0
2018-Feb-16 09:30N 42°21' W 071°02'0 0.0
2018-Feb-16 08:54N 42°21' W 071°02'0 0.0
2018-Feb-16 08:30N 42°21' W 071°02'0 0.0
2018-Feb-16 08:00N 42°21' W 071°02'0 0.0
2018-Feb-16 07:30N 42°21' W 071°02'0 0.0
2018-Feb-16 07:00N 42°21' W 071°02'0 0.0
2018-Feb-16 06:30N 42°21' W 071°02'0 0.0
2018-Feb-16 05:59N 42°21' W 071°02'0 0.1
2018-Feb-16 05:30N 42°21' W 071°02'0 0.1
2018-Feb-16 04:55N 42°21' W 071°02'0 0.0
2018-Feb-16 04:30N 42°21' W 071°02'0 0.0
2018-Feb-16 04:00N 42°21' W 071°02'0 0.1
2018-Feb-16 03:30N 42°21' W 071°02'0 0.1
2018-Feb-16 02:59N 42°21' W 071°02'0 0.1
2018-Feb-16 02:30N 42°21' W 071°02'0 0.0
2018-Feb-16 02:00N 42°21' W 071°02'0 0.0
2018-Feb-16 01:29N 42°21' W 071°02'0 0.1
2018-Feb-16 01:00N 42°21' W 071°02'0 0.0
2018-Feb-16 00:30N 42°21' W 071°02'0 0.0
2018-Feb-16 00:00N 42°21' W 071°02'0 0.0
2018-Feb-15 23:30N 42°21' W 071°02'0 0.0
2018-Feb-15 23:00N 42°21' W 071°02'0 0.1
2018-Feb-15 22:30N 42°21' W 071°02'0 0.0
2018-Feb-15 22:00N 42°21' W 071°02'0 0.0
2018-Feb-15 21:30N 42°21' W 071°02'0 0.0
2018-Feb-15 21:00N 42°21' W 071°02'0 0.0
2018-Feb-15 20:30N 42°21' W 071°02'0 0.0
2018-Feb-15 19:57N 42°21' W 071°02'0 0.1
2018-Feb-15 19:30N 42°21' W 071°02'0 0.0
2018-Feb-15 18:59N 42°21' W 071°02'0 0.0
2018-Feb-15 18:28N 42°21' W 071°02'0 0.0
2018-Feb-15 18:00N 42°21' W 071°02'0 0.0
2018-Feb-15 17:30N 42°21' W 071°02'  

Dump ship's entire track history